createdAt,value
2023-03-12T00:00:52.758Z,5.45
2023-03-12T00:03:20.331Z,5.32
2023-03-12T00:05:49.218Z,6.20
2023-03-12T00:08:16.773Z,5.60
2023-03-12T00:10:44.324Z,5.43
2023-03-12T00:13:11.872Z,6.05
2023-03-12T00:15:40.371Z,5.68
2023-03-12T00:18:07.978Z,5.53
2023-03-12T00:20:35.550Z,6.10
2023-03-12T00:23:04.483Z,5.13
2023-03-12T00:25:32.086Z,5.65
2023-03-12T00:27:59.658Z,5.50
2023-03-12T00:30:28.229Z,5.22
2023-03-12T00:32:55.883Z,5.55
2023-03-12T00:35:23.550Z,6.10
2023-03-12T00:37:51.299Z,5.60
2023-03-12T00:40:20.356Z,5.78
2023-03-12T00:42:47.928Z,5.53
2023-03-12T00:45:15.708Z,5.70
2023-03-12T00:47:43.285Z,5.27
2023-03-12T00:50:11.722Z,5.45
2023-03-12T00:52:39.304Z,5.53
2023-03-12T00:55:07.256Z,5.70
2023-03-12T00:57:36.210Z,5.68
2023-03-12T01:00:05.618Z,5.70
2023-03-12T01:02:33.284Z,6.32
2023-03-12T01:05:00.871Z,6.38
2023-03-12T01:07:28.485Z,7.25
2023-03-12T01:09:56.434Z,6.00
2023-03-12T01:12:24.112Z,6.73
2023-03-12T01:14:53.017Z,6.80
2023-03-12T01:17:20.724Z,7.05
2023-03-12T01:19:48.766Z,7.88
2023-03-12T01:22:16.473Z,7.15
2023-03-12T01:24:44.005Z,7.57
2023-03-12T01:27:11.532Z,7.03
2023-03-12T01:29:39.045Z,7.75
2023-03-12T01:32:08.764Z,7.63
2023-03-12T01:34:36.476Z,7.88
2023-03-12T01:37:04.114Z,7.87
2023-03-12T01:39:31.834Z,7.95
2023-03-12T01:41:59.453Z,7.60
2023-03-12T01:44:27.040Z,8.00
2023-03-12T01:46:54.680Z,7.53
2023-03-12T01:49:28.999Z,8.13
2023-03-12T01:52:01.341Z,8.20
2023-03-12T01:54:36.223Z,7.47
2023-03-12T01:57:07.295Z,8.32
2023-03-12T01:59:39.202Z,8.48
2023-03-12T02:02:08.745Z,7.50
2023-03-12T02:04:39.763Z,8.38
2023-03-12T02:07:10.845Z,8.90
2023-03-12T02:09:42.041Z,8.52
2023-03-12T02:12:11.009Z,8.32
2023-03-12T02:14:39.183Z,8.00
2023-03-12T02:17:07.943Z,8.48
2023-03-12T02:19:47.493Z,7.82
2023-03-12T02:22:16.190Z,8.00
2023-03-12T02:24:49.143Z,8.25
2023-03-12T02:27:19.822Z,8.27
2023-03-12T02:29:47.532Z,8.13
2023-03-12T02:32:21.071Z,7.85
2023-03-12T02:34:50.554Z,7.75
2023-03-12T02:37:18.966Z,8.00
2023-03-12T02:39:56.089Z,7.53
2023-03-12T02:42:25.626Z,7.85
2023-03-12T02:44:53.333Z,8.30
2023-03-12T02:47:21.122Z,7.25
2023-03-12T02:49:48.784Z,8.25
2023-03-12T02:52:16.358Z,7.37
2023-03-12T02:54:44.141Z,8.68
2023-03-12T02:57:12.460Z,8.25
2023-03-12T02:59:41.583Z,8.90
2023-03-12T03:02:12.433Z,8.75
2023-03-12T03:04:40.267Z,8.50
2023-03-12T03:07:08.225Z,8.43
2023-03-12T03:09:35.828Z,9.20
2023-03-12T03:12:03.673Z,8.65
2023-03-12T03:14:33.518Z,8.52
2023-03-12T03:17:02.570Z,9.17
2023-03-12T03:19:30.096Z,9.30
2023-03-12T03:21:57.680Z,8.95
2023-03-12T03:24:25.300Z,8.73
2023-03-12T03:26:53.015Z,9.25
2023-03-12T03:29:20.728Z,9.10
2023-03-12T03:31:48.665Z,9.35
2023-03-12T03:34:17.538Z,8.10
2023-03-12T03:36:45.115Z,8.40
2023-03-12T03:39:15.482Z,8.88
2023-03-12T03:41:43.148Z,8.53
2023-03-12T03:44:11.661Z,9.27
2023-03-12T03:46:39.776Z,8.63
2023-03-12T03:49:10.410Z,9.15
2023-03-12T03:51:42.592Z,9.25
2023-03-12T03:54:28.152Z,10.20
2023-03-12T03:56:55.725Z,9.82
2023-03-12T03:59:24.100Z,9.82
2023-03-12T04:01:52.373Z,9.50
2023-03-12T04:04:20.005Z,9.90
2023-03-12T04:06:48.950Z,10.00
2023-03-12T04:09:16.478Z,9.45
2023-03-12T04:11:44.557Z,9.25
2023-03-12T04:14:13.852Z,9.60
2023-03-12T04:16:44.961Z,9.57
2023-03-12T04:19:12.979Z,9.83
2023-03-12T04:21:40.970Z,9.00
2023-03-12T04:24:15.126Z,9.77
2023-03-12T04:26:42.701Z,9.90
2023-03-12T04:29:10.272Z,8.95
2023-03-12T04:31:37.900Z,9.40
2023-03-12T04:34:05.579Z,9.88
2023-03-12T04:36:33.289Z,8.93
2023-03-12T04:39:01.503Z,9.15
2023-03-12T04:41:35.192Z,9.40
2023-03-12T04:44:12.669Z,9.13
2023-03-12T04:46:42.197Z,9.50
2023-03-12T04:49:12.753Z,8.95
2023-03-12T04:51:41.664Z,9.95
2023-03-12T04:54:09.258Z,9.95
2023-03-12T04:56:39.700Z,9.77
2023-03-12T04:59:07.429Z,9.23
2023-03-12T05:01:37.332Z,8.88
2023-03-12T05:04:09.923Z,9.43
2023-03-12T05:06:37.707Z,8.77
2023-03-12T05:09:05.660Z,8.20
2023-03-12T05:11:33.646Z,8.85
2023-03-12T05:14:02.950Z,8.82
2023-03-12T05:16:30.766Z,8.25
2023-03-12T05:18:58.654Z,8.40
2023-03-12T05:21:26.556Z,8.10
2023-03-12T05:23:56.113Z,8.35
2023-03-12T05:26:28.047Z,8.68
2023-03-12T05:29:03.976Z,9.45
2023-03-12T05:31:35.180Z,9.15
2023-03-12T05:34:05.228Z,8.67
2023-03-12T05:36:35.886Z,8.68
2023-03-12T05:39:04.183Z,8.80
2023-03-12T05:41:34.033Z,8.20
2023-03-12T05:44:13.373Z,8.55
2023-03-12T05:46:41.977Z,8.83
2023-03-12T05:49:09.810Z,8.30
2023-03-12T05:51:38.103Z,9.45
2023-03-12T05:54:07.066Z,9.20
2023-03-12T05:56:36.884Z,9.20
2023-03-12T05:59:04.885Z,7.97
2023-03-12T06:01:34.563Z,9.05
2023-03-12T06:04:04.230Z,8.75
2023-03-12T06:06:32.937Z,8.43
2023-03-12T06:09:00.878Z,8.70
2023-03-12T06:11:28.468Z,8.90
2023-03-12T06:13:56.987Z,8.68
2023-03-12T06:16:27.055Z,8.57
2023-03-12T06:18:58.012Z,9.00
2023-03-12T06:21:28.468Z,8.90
2023-03-12T06:23:56.397Z,8.30
2023-03-12T06:26:29.624Z,9.32
2023-03-12T06:28:57.478Z,10.95
2023-03-12T06:31:25.580Z,9.93
2023-03-12T06:33:53.654Z,8.40
2023-03-12T06:36:23.261Z,10.10
2023-03-12T06:38:50.934Z,8.93
2023-03-12T06:41:20.875Z,8.07
2023-03-12T06:43:49.354Z,8.63
2023-03-12T06:46:19.001Z,9.10
2023-03-12T06:48:46.694Z,10.20
2023-03-12T06:51:16.553Z,10.25
2023-03-12T06:53:46.011Z,16.67
2023-03-12T06:56:13.997Z,8.80
2023-03-12T06:58:42.309Z,8.90
2023-03-12T07:01:09.996Z,9.03
2023-03-12T07:03:37.554Z,8.85
2023-03-12T07:06:06.321Z,8.77
2023-03-12T07:08:33.888Z,9.43
2023-03-12T07:11:03.424Z,10.50
2023-03-12T07:13:31.590Z,9.93
2023-03-12T07:15:59.139Z,10.80
2023-03-12T07:18:26.670Z,10.23
2023-03-12T07:20:54.774Z,10.60
2023-03-12T07:23:22.720Z,11.35
2023-03-12T07:25:50.776Z,10.77
2023-03-12T07:28:20.559Z,10.30
2023-03-12T07:30:50.466Z,10.73
2023-03-12T07:33:20.029Z,10.88
2023-03-12T07:35:51.752Z,11.73
2023-03-12T07:38:19.923Z,10.40
2023-03-12T07:40:51.641Z,10.88
2023-03-12T07:43:21.826Z,11.73
2023-03-12T07:45:51.482Z,10.75
2023-03-12T07:48:20.111Z,9.43
2023-03-12T07:50:48.710Z,10.00
2023-03-12T07:53:16.661Z,9.88
2023-03-12T07:55:46.347Z,11.43
2023-03-12T07:58:14.260Z,9.57
2023-03-12T08:00:43.285Z,10.07
2023-03-12T08:03:11.357Z,10.07
2023-03-12T08:05:39.142Z,9.80
2023-03-12T08:08:07.527Z,9.63
2023-03-12T08:10:35.154Z,9.88
2023-03-12T08:13:02.850Z,9.35
2023-03-12T08:15:30.359Z,9.87
2023-03-12T08:17:59.350Z,9.77
2023-03-12T08:20:26.879Z,9.32
2023-03-12T08:22:54.407Z,9.25
2023-03-12T08:25:24.549Z,10.30
2023-03-12T08:27:52.095Z,8.73
2023-03-12T08:30:19.900Z,9.82
2023-03-12T08:32:47.679Z,17.65
2023-03-12T08:35:16.640Z,8.10
2023-03-12T08:37:44.147Z,8.70
2023-03-12T08:40:13.472Z,11.43
2023-03-12T08:42:41.535Z,7.45
2023-03-12T08:45:10.882Z,6.90
2023-03-12T08:47:41.387Z,10.00
2023-03-12T08:50:10.624Z,8.88
2023-03-12T08:52:39.565Z,7.40
2023-03-12T08:55:07.747Z,6.35
2023-03-12T08:57:35.487Z,6.57
2023-03-12T09:00:05.223Z,5.75
2023-03-12T09:02:32.909Z,5.90
2023-03-12T09:05:00.520Z,6.27
2023-03-12T09:07:28.094Z,6.25
2023-03-12T09:09:57.130Z,6.93
2023-03-12T09:12:25.095Z,6.13
2023-03-12T09:15:08.538Z,5.47
2023-03-12T09:17:36.099Z,5.23
2023-03-12T09:20:06.945Z,5.38
2023-03-12T09:22:36.846Z,5.85
2023-03-12T09:25:07.510Z,4.82
2023-03-12T09:27:37.493Z,6.65
2023-03-12T09:30:06.820Z,6.57
2023-03-12T09:32:34.553Z,6.65
2023-03-12T09:35:02.354Z,4.55
2023-03-12T09:37:32.196Z,6.15
2023-03-12T09:39:59.846Z,7.70
2023-03-12T09:42:40.142Z,7.53
2023-03-12T09:45:12.068Z,5.03
2023-03-12T09:47:47.406Z,7.68
2023-03-12T09:50:23.565Z,6.18
2023-03-12T09:52:54.607Z,6.70
2023-03-12T09:55:23.202Z,5.07
2023-03-12T09:57:52.855Z,9.73
2023-03-12T10:00:23.666Z,8.68
2023-03-12T10:03:08.093Z,5.15
2023-03-12T10:05:39.248Z,6.90
2023-03-12T10:08:23.807Z,5.97
2023-03-12T10:10:55.951Z,5.03
2023-03-12T10:13:44.755Z,4.65
2023-03-12T10:16:25.464Z,4.63
2023-03-12T10:19:06.547Z,4.80
2023-03-12T10:21:42.353Z,4.40
2023-03-12T10:24:34.518Z,5.00
2023-03-12T10:27:02.386Z,4.93
2023-03-12T10:29:34.821Z,5.05
2023-03-12T10:32:07.082Z,4.32
2023-03-12T10:34:41.064Z,4.67
2023-03-12T10:37:18.070Z,5.03
2023-03-12T10:39:46.313Z,5.30
2023-03-12T10:42:17.295Z,4.63
2023-03-12T10:44:47.459Z,3.92
2023-03-12T10:47:29.063Z,4.17
2023-03-12T10:50:13.018Z,4.32
2023-03-12T10:52:41.121Z,4.03
2023-03-12T10:55:14.361Z,4.22
2023-03-12T10:57:42.967Z,3.97
2023-03-12T11:00:20.819Z,5.00
2023-03-12T11:02:58.627Z,4.00
2023-03-12T11:05:29.305Z,3.97
2023-03-12T11:07:59.650Z,4.25
2023-03-12T11:10:38.242Z,4.60
2023-03-12T11:13:22.054Z,4.90
2023-03-12T11:15:52.707Z,4.93
2023-03-12T11:18:26.628Z,5.28
2023-03-12T11:20:57.359Z,6.15
2023-03-12T11:23:29.291Z,5.75
2023-03-12T11:26:01.063Z,4.60
2023-03-12T11:28:37.474Z,4.78
2023-03-12T11:31:11.961Z,8.27
2023-03-12T11:33:39.594Z,6.15
2023-03-12T11:36:21.465Z,5.00
2023-03-12T11:38:56.395Z,5.33
2023-03-12T11:41:40.837Z,5.40
2023-03-12T11:44:26.517Z,5.60
2023-03-12T11:47:13.253Z,4.95
2023-03-12T11:49:58.062Z,4.57
2023-03-12T11:52:34.318Z,4.30
2023-03-12T11:55:39.011Z,4.55
2023-03-12T11:58:26.174Z,5.90
2023-03-12T12:01:03.109Z,4.80
2023-03-12T12:04:11.722Z,4.80
2023-03-12T12:06:54.697Z,4.37
2023-03-12T12:09:30.570Z,6.32
2023-03-12T12:12:09.898Z,4.45
2023-03-12T12:14:53.933Z,4.00
2023-03-12T12:17:33.038Z,4.10
2023-03-12T12:20:18.497Z,4.70
2023-03-12T12:22:59.060Z,4.40
2023-03-12T12:25:39.295Z,4.72
2023-03-12T12:28:24.335Z,4.53
2023-03-12T12:31:00.905Z,4.40
2023-03-12T12:33:41.654Z,4.60
2023-03-12T12:36:11.657Z,3.90
2023-03-12T12:38:44.004Z,4.07
2023-03-12T12:41:16.518Z,4.60
2023-03-12T12:43:49.348Z,4.18
2023-03-12T12:46:20.616Z,3.40
2023-03-12T12:48:53.643Z,3.80
2023-03-12T12:51:27.941Z,5.05
2023-03-12T12:54:01.107Z,4.15
2023-03-12T12:56:33.380Z,5.07
2023-03-12T12:59:21.326Z,4.80
2023-03-12T13:01:51.093Z,4.13
2023-03-12T13:04:25.151Z,4.43
2023-03-12T13:07:01.384Z,21.73
2023-03-12T13:09:41.563Z,4.65
2023-03-12T13:12:14.460Z,4.33
2023-03-12T13:14:44.049Z,6.45
2023-03-12T13:17:34.002Z,8.68
2023-03-12T13:20:14.266Z,5.72
2023-03-12T13:23:04.850Z,4.68
2023-03-12T13:25:48.246Z,6.97
2023-03-12T13:28:32.685Z,4.97
2023-03-12T13:31:01.356Z,6.30
2023-03-12T13:33:42.075Z,3.53
2023-03-12T13:36:24.578Z,5.07
2023-03-12T13:38:59.394Z,5.97
2023-03-12T13:41:37.649Z,6.05
2023-03-12T13:44:30.338Z,6.93
2023-03-12T13:47:00.995Z,4.57
2023-03-12T13:49:35.666Z,8.18
2023-03-12T13:52:18.844Z,9.30
2023-03-12T13:54:51.678Z,4.97
2023-03-12T13:57:30.482Z,4.50
2023-03-12T13:59:59.346Z,4.60
2023-03-12T14:02:31.358Z,5.22
2023-03-12T14:05:05.290Z,10.47
2023-03-12T14:08:05.541Z,11.05
2023-03-12T14:10:49.823Z,5.50
2023-03-12T14:13:34.514Z,4.43
2023-03-12T14:16:07.232Z,4.80
2023-03-12T14:18:36.876Z,6.80
2023-03-12T14:21:09.087Z,7.65
2023-03-12T14:23:39.682Z,5.00
2023-03-12T14:26:09.573Z,12.05
2023-03-12T14:28:42.088Z,6.32
2023-03-12T14:31:14.683Z,4.57
2023-03-12T14:33:51.972Z,7.45
2023-03-12T14:36:22.113Z,6.70
2023-03-12T14:38:50.342Z,5.45
2023-03-12T14:41:22.010Z,6.30
2023-03-12T14:43:53.163Z,4.50
2023-03-12T14:46:22.248Z,5.43
2023-03-12T14:48:51.381Z,4.30
2023-03-12T14:51:24.314Z,4.80
2023-03-12T14:53:53.194Z,6.30
2023-03-12T14:56:30.022Z,5.17
2023-03-12T14:58:59.114Z,4.68
2023-03-12T15:01:28.756Z,5.82
2023-03-12T15:04:01.067Z,4.75
2023-03-12T15:06:31.552Z,9.25
2023-03-12T15:09:03.535Z,9.53
2023-03-12T15:11:34.450Z,5.72
2023-03-12T15:14:05.893Z,4.88
2023-03-12T15:16:34.382Z,5.22
2023-03-12T15:19:03.648Z,8.63
2023-03-12T15:21:33.468Z,6.97
2023-03-12T15:24:01.191Z,6.47
2023-03-12T15:26:32.039Z,6.20
2023-03-12T15:29:03.161Z,5.38
2023-03-12T15:31:43.433Z,6.50
2023-03-12T15:34:13.525Z,6.60
2023-03-12T15:36:48.111Z,6.20
2023-03-12T15:39:27.628Z,5.50
2023-03-12T15:41:57.199Z,5.30
2023-03-12T15:44:28.033Z,6.50
2023-03-12T15:47:03.911Z,6.67
2023-03-12T15:49:36.647Z,5.78
2023-03-12T15:52:24.621Z,6.70
2023-03-12T15:55:01.472Z,6.90
2023-03-12T15:57:29.864Z,6.70
2023-03-12T16:00:22.205Z,6.17
2023-03-12T16:02:53.105Z,6.05
2023-03-12T16:05:22.047Z,6.75
2023-03-12T16:07:50.153Z,6.18
2023-03-12T16:10:19.821Z,7.28
2023-03-12T16:12:49.904Z,5.97
2023-03-12T16:15:23.598Z,6.25
2023-03-12T16:17:51.193Z,6.22
2023-03-12T16:20:19.967Z,6.50
2023-03-12T16:22:47.593Z,6.32
2023-03-12T16:25:15.270Z,7.13
2023-03-12T16:27:49.333Z,7.53
2023-03-12T16:30:21.608Z,7.80
2023-03-12T16:32:49.424Z,7.20
2023-03-12T16:35:18.698Z,7.30
2023-03-12T16:37:46.432Z,7.70
2023-03-12T16:40:24.027Z,8.93
2023-03-12T16:43:02.418Z,9.48
2023-03-12T16:45:32.326Z,9.30
2023-03-12T16:48:02.046Z,8.40
2023-03-12T16:50:30.252Z,10.30
2023-03-12T16:52:58.166Z,9.32
2023-03-12T16:55:29.125Z,9.77
2023-03-12T16:57:59.320Z,9.25
2023-03-12T17:00:30.162Z,12.43
2023-03-12T17:02:59.470Z,8.97
2023-03-12T17:05:29.026Z,10.18
2023-03-12T17:07:58.288Z,9.27
2023-03-12T17:10:26.708Z,10.77
2023-03-12T17:12:55.634Z,10.02
2023-03-12T17:15:25.805Z,10.73
2023-03-12T17:17:55.616Z,10.55
2023-03-12T17:20:25.743Z,9.43
2023-03-12T17:22:53.439Z,11.55
2023-03-12T17:25:24.274Z,10.43
2023-03-12T17:27:52.115Z,10.30
2023-03-12T17:30:21.815Z,10.13
2023-03-12T17:32:49.804Z,9.48
2023-03-12T17:35:18.022Z,10.75
2023-03-12T17:37:48.273Z,10.35
2023-03-12T17:40:16.734Z,10.73
2023-03-12T17:42:44.321Z,11.32
2023-03-12T17:45:12.008Z,12.40
2023-03-12T17:47:39.614Z,14.65
2023-03-12T17:50:08.287Z,10.10
2023-03-12T17:52:36.155Z,9.63
2023-03-12T17:55:05.930Z,12.45
2023-03-12T17:57:33.657Z,11.70
2023-03-12T18:00:01.213Z,10.93
2023-03-12T18:02:28.888Z,10.40
2023-03-12T18:04:56.429Z,9.83
2023-03-12T18:07:23.965Z,10.68
2023-03-12T18:09:51.650Z,12.05
2023-03-12T18:12:20.707Z,10.65
2023-03-12T18:14:48.781Z,10.48
2023-03-12T18:17:16.339Z,11.03
2023-03-12T18:19:43.985Z,10.90
2023-03-12T18:22:14.065Z,11.45
2023-03-12T18:24:41.722Z,12.93
2023-03-12T18:27:09.595Z,13.02
2023-03-12T18:29:40.566Z,13.00
2023-03-12T18:32:08.285Z,15.57
2023-03-12T18:34:35.986Z,15.13
2023-03-12T18:37:03.538Z,14.90
2023-03-12T18:39:31.212Z,16.23
2023-03-12T18:41:58.721Z,15.50
2023-03-12T18:44:26.232Z,16.02
2023-03-12T18:46:55.111Z,18.25
2023-03-12T18:49:22.723Z,16.77
2023-03-12T18:51:53.315Z,16.08
2023-03-12T18:54:22.020Z,16.50
2023-03-12T18:56:51.133Z,17.05
2023-03-12T18:59:18.725Z,18.27
2023-03-12T19:01:46.385Z,18.90
2023-03-12T19:04:18.061Z,18.67
2023-03-12T19:06:51.331Z,17.80
2023-03-12T19:09:19.281Z,17.63
2023-03-12T19:11:47.289Z,24.92
2023-03-12T19:14:14.864Z,18.73
2023-03-12T19:16:42.479Z,17.83
2023-03-12T19:19:10.128Z,17.53
2023-03-12T19:21:39.032Z,17.85
2023-03-12T19:24:06.807Z,20.08
2023-03-12T19:26:34.328Z,20.45
2023-03-12T19:29:01.848Z,21.60
2023-03-12T19:31:29.461Z,21.10
2023-03-12T19:33:57.035Z,21.17
2023-03-12T19:36:24.627Z,20.70
2023-03-12T19:38:53.513Z,20.65
2023-03-12T19:41:21.020Z,19.88
2023-03-12T19:43:48.523Z,20.53
2023-03-12T19:46:16.266Z,21.30
2023-03-12T19:48:43.815Z,20.73
2023-03-12T19:51:12.769Z,20.60
2023-03-12T19:53:40.347Z,23.05
2023-03-12T19:56:09.353Z,23.97
2023-03-12T19:58:37.060Z,21.63
2023-03-12T20:01:05.071Z,23.52
2023-03-12T20:03:32.855Z,24.80
2023-03-12T20:06:00.536Z,22.08
2023-03-12T20:08:31.115Z,21.97
2023-03-12T20:11:05.761Z,20.88
2023-03-12T20:13:35.228Z,20.70
2023-03-12T20:16:03.745Z,19.63
2023-03-12T20:18:31.562Z,19.17
2023-03-12T20:20:59.123Z,18.13
2023-03-12T20:23:26.705Z,19.35
2023-03-12T20:25:54.272Z,19.50
2023-03-12T20:28:21.936Z,18.77
2023-03-12T20:30:50.946Z,17.98
2023-03-12T20:33:19.389Z,17.73
2023-03-12T20:35:49.864Z,18.48
2023-03-12T20:38:17.854Z,18.52
2023-03-12T20:40:46.396Z,16.83
2023-03-12T20:43:13.897Z,17.40
2023-03-12T20:45:41.565Z,17.50
2023-03-12T20:48:11.614Z,16.42
2023-03-12T20:50:39.789Z,15.45
2023-03-12T20:53:07.699Z,15.68
2023-03-12T20:55:35.277Z,14.85
2023-03-12T20:58:02.781Z,15.63
2023-03-12T21:00:30.396Z,15.02
2023-03-12T21:02:58.077Z,14.63
2023-03-12T21:05:27.145Z,13.77
2023-03-12T21:07:58.016Z,14.60
2023-03-12T21:10:25.561Z,12.90
2023-03-12T21:12:53.100Z,12.77
2023-03-12T21:15:20.701Z,11.15
2023-03-12T21:17:48.258Z,11.45
2023-03-12T21:20:17.716Z,11.52
2023-03-12T21:22:47.381Z,11.33
2023-03-12T21:25:14.987Z,10.32
2023-03-12T21:27:50.403Z,10.82
2023-03-12T21:30:19.455Z,10.52
2023-03-12T21:32:47.056Z,10.63
2023-03-12T21:35:14.621Z,11.43
2023-03-12T21:37:42.189Z,10.65
2023-03-12T21:40:12.742Z,9.85
2023-03-12T21:42:40.560Z,10.05
2023-03-12T21:45:09.369Z,10.93
2023-03-12T21:47:37.147Z,10.63
2023-03-12T21:50:05.316Z,10.40
2023-03-12T21:52:41.476Z,9.85
2023-03-12T21:55:12.471Z,10.30
2023-03-12T21:57:40.069Z,9.35
2023-03-12T22:00:12.418Z,9.37
2023-03-12T22:02:40.063Z,10.25
2023-03-12T22:05:08.827Z,9.15
2023-03-12T22:07:36.510Z,9.75
2023-03-12T22:10:04.458Z,9.80
2023-03-12T22:12:33.354Z,9.87
2023-03-12T22:15:00.978Z,10.85
2023-03-12T22:17:28.605Z,10.30
2023-03-12T22:19:56.150Z,10.75
2023-03-12T22:22:23.708Z,10.00
2023-03-12T22:24:51.357Z,9.93
2023-03-12T22:27:18.880Z,9.98
2023-03-12T22:29:50.587Z,10.88
2023-03-12T22:32:18.256Z,9.63
2023-03-12T22:34:45.810Z,10.27
2023-03-12T22:37:13.490Z,9.70
2023-03-12T22:39:43.034Z,9.95
2023-03-12T22:42:10.674Z,11.00
2023-03-12T22:44:41.562Z,11.55
2023-03-12T22:47:10.530Z,11.10
2023-03-12T22:49:38.073Z,9.67
2023-03-12T22:52:06.277Z,11.23
2023-03-12T22:54:34.010Z,9.75
2023-03-12T22:57:01.503Z,11.43
2023-03-12T22:59:29.018Z,11.32
2023-03-12T23:01:56.698Z,10.17
2023-03-12T23:04:25.769Z,10.90
2023-03-12T23:06:59.077Z,10.77
2023-03-12T23:09:32.061Z,11.32
2023-03-12T23:11:59.576Z,11.05
2023-03-12T23:14:27.182Z,11.43
2023-03-12T23:16:56.474Z,11.85
2023-03-12T23:19:25.325Z,11.32
2023-03-12T23:21:52.966Z,9.48
2023-03-12T23:24:22.008Z,9.80
2023-03-12T23:26:49.588Z,9.80
2023-03-12T23:29:17.176Z,9.98
2023-03-12T23:31:44.754Z,10.20
2023-03-12T23:34:12.440Z,9.70
2023-03-12T23:36:42.402Z,9.77
2023-03-12T23:39:10.027Z,9.23
2023-03-12T23:41:37.808Z,8.98
2023-03-12T23:44:05.751Z,8.55
2023-03-12T23:46:33.761Z,8.00
2023-03-12T23:49:01.482Z,8.15
2023-03-12T23:51:30.488Z,8.80
2023-03-12T23:54:01.646Z,7.75
2023-03-12T23:56:33.974Z,7.88
2023-03-12T23:59:01.534Z,8.18
